Crotone Airport LIBC

Flugplatz Daten

Name: Crotone Airport

Ident: LIBC

Lat: 38,99720001

Long: 17,0802002

Platzhöhe: 522 ft

IataCode: CRV

City: Crotone

Homepage: http://www.aeroporto.kr.it/cartaservizi_eng.asp

Metar

2021/12/03 18:50
LIBC 031850Z 01006KT 320V070 8000 TSRA SCT020CB 11/11 Q1005

Taf

2021/12/03 18:20
TAF LIBC 031912Z 0318/0418 CNL
Gewünschte Webcam nicht vorhanden? Dann fügen Sie eine hinzu. Sie wird dann so schnell wie möglich freigeschaltet
Url: Title: